ADDS METAR Data INFO
IDs: Format: Raw Decoded Include TAF

Data at: 0747 UTC 21 Nov 2017

KPAE 210653Z AUTO 08008KT 10SM CLR 04/03 A3007 RMK AO2 SLP184 T00440028

KPAE 210528Z 2106/2206 08005KT P6SM SCT250
  FM211200 06004KT P6SM OVC050
  FM211500 09005KT 4SM -RA BR OVC035 WS020/19030KT
  FM211700 09007KT 2SM -RA BR OVC025 WS020/19035KT
  FM212300 16013G22KT 5SM -RA BR OVC015
  FM220300 17015G25KT 5SM -SHRA BKN015 OVC025


KAWO 210713Z AUTO 35004KT 3SM BR FEW002 01/01 A3010 RMK AO2 FZRANO
No TAF found for KAWO

KBFI 210653Z 00000KT 10SM CLR 04/03 A3008 RMK AO2 SLP185 T00390033

KBFI 210528Z 2106/2206 00000KT P6SM SCT250
  FM211200 00000KT P6SM SCT030 OVC050
  FM211400 00000KT 4SM -RA BR OVC025 WS020/19030KT
  FM211800 VRB02KT 2SM -RA BR OVC020 WS020/19035KT
  FM212300 15006KT 6SM -SHRA SCT030 OVC050


KRNT 210653Z AUTO 00000KT 10SM CLR 04/04 A3007 RMK AO2 SLP188 T00390039
No TAF found for KRNT

KSEA 210653Z 10006KT 10SM SCT250 06/03 A3006 RMK AO2 SLP189 T00560033

KSEA 210528Z 2106/2212 08006KT P6SM SCT250
  FM211200 05005KT P6SM SCT025 OVC045
  FM211400 05007KT 4SM -RA BR OVC020 WS020/19030KT
  FM211800 06008KT 2SM -RA BR OVC015 WS020/19035KT
  FM212200 15010KT 6SM -SHRA SCT025 OVC045